Time;durP1;ratioP1;P1;durP2;ratioP2;P2;SDS_P1;SDS_P2;PMS_P1;PMS_P2;Temp;Humidity;BMP_temperature;BMP_pressure;BME280_temperature;BME280_humidity;BME280_pressure;Samples;Min_cycle;Max_cycle;Signal;HPM_P1;HPM_P2
2023/08/18 00:00:42;;;;;;;23.05;20.08;;;22.80;68.80;;;;;;5026010;28;20124;-52
2023/08/18 00:03:09;;;;;;;25.85;19.73;;;22.80;68.80;;;;;;5026467;28;20650;-49
2023/08/18 00:05:36;;;;;;;26.63;19.85;;;22.80;68.80;;;;;;5022142;28;20565;-48
2023/08/18 00:08:02;;;;;;;27.50;21.48;;;22.80;68.80;;;;;;5026745;28;20042;-49
2023/08/18 00:10:29;;;;;;;27.38;19.98;;;22.80;68.80;;;;;;5010567;28;20029;-49
2023/08/18 00:12:58;;;;;;;25.42;20.25;;;22.80;68.70;;;;;;5011765;28;20038;-50
2023/08/18 00:15:27;;;;;;;29.50;22.27;;;22.80;68.70;;;;;;5029668;28;20072;-51
2023/08/18 00:17:54;;;;;;;30.67;23.15;;;22.80;68.60;;;;;;5024224;28;20045;-52
2023/08/18 00:20:21;;;;;;;31.73;24.20;;;22.80;68.50;;;;;;5022825;28;20042;-50
2023/08/18 00:22:57;;;;;;;31.02;23.20;;;22.80;68.40;;;;;;5028871;28;20036;-52
2023/08/18 00:25:24;;;;;;;32.92;23.83;;;22.80;68.40;;;;;;5025655;28;20105;-52
2023/08/18 00:27:54;;;;;;;37.65;24.02;;;22.80;68.40;;;;;;5024964;28;20504;-50
2023/08/18 00:30:24;;;;;;;31.17;23.17;;;22.80;69.10;;;;;;5027580;28;20555;-49
2023/08/18 00:32:51;;;;;;;33.72;24.00;;;22.80;68.40;;;;;;5012264;28;20427;-50
2023/08/18 00:35:21;;;;;;;35.33;25.20;;;22.80;68.30;;;;;;5004107;28;20444;-52
2023/08/18 00:37:50;;;;;;;37.65;25.20;;;22.80;68.30;;;;;;5007180;28;20044;-50
2023/08/18 00:40:16;;;;;;;39.50;27.50;;;22.80;68.30;;;;;;5006533;28;20038;-50
2023/08/18 00:42:46;;;;;;;37.03;26.45;;;22.70;68.20;;;;;;5027070;28;20495;-50
2023/08/18 00:45:14;;;;;;;33.92;24.88;;;22.70;68.20;;;;;;5003810;28;20052;-50
2023/08/18 00:47:40;;;;;;;36.03;27.15;;;22.70;68.10;;;;;;5026390;28;20065;-49
2023/08/18 00:50:12;;;;;;;35.05;24.30;;;22.70;68.20;;;;;;5029297;28;20419;-49
2023/08/18 00:52:43;;;;;;;31.73;23.85;;;22.70;68.90;;;;;;5024549;28;20563;-49
2023/08/18 00:55:11;;;;;;;33.65;24.38;;;22.70;68.40;;;;;;5021588;28;20119;-51
2023/08/18 00:57:41;;;;;;;29.98;22.48;;;22.60;68.30;;;;;;5028006;28;20065;-51
2023/08/18 01:00:08;;;;;;;31.17;23.90;;;22.60;68.50;;;;;;5007973;28;20104;-48
2023/08/18 01:02:36;;;;;;;29.23;22.13;;;22.60;68.70;;;;;;5026717;28;20045;-51
2023/08/18 01:05:03;;;;;;;35.75;24.67;;;22.60;68.60;;;;;;5022976;28;20096;-49
2023/08/18 01:07:29;;;;;;;33.63;24.40;;;22.60;68.50;;;;;;5023816;28;20061;-48
2023/08/18 01:09:59;;;;;;;28.85;22.30;;;22.60;68.50;;;;;;5026818;28;20041;-52
2023/08/18 01:12:40;;;;;;;35.25;25.48;;;22.60;68.70;;;;;;5026928;28;20092;-49
2023/08/18 01:15:20;;;;;;;33.85;24.30;;;22.60;68.60;;;;;;5005573;28;20049;-50
2023/08/18 01:18:01;;;;;;;32.75;24.17;;;22.60;68.80;;;;;;5021699;28;20069;-49
2023/08/18 01:20:32;;;;;;;34.00;24.98;;;22.60;68.70;;;;;;5028227;28;20045;-49
2023/08/18 01:23:00;;;;;;;34.53;25.60;;;22.60;68.50;;;;;;5024989;28;20116;-50
2023/08/18 01:25:30;;;;;;;34.92;24.58;;;22.60;68.40;;;;;;5008648;28;20451;-50
2023/08/18 01:28:02;;;;;;;32.38;23.23;;;22.50;68.50;;;;;;5006823;28;20103;-50
2023/08/18 01:30:41;;;;;;;35.20;24.63;;;22.50;68.40;;;;;;5007239;28;20041;-48
2023/08/18 01:33:24;;;;;;;33.70;24.25;;;22.50;68.60;;;;;;5022965;28;20120;-52
2023/08/18 01:35:56;;;;;;;37.13;26.95;;;22.50;68.50;;;;;;5022164;28;20047;-48
2023/08/18 01:38:24;;;;;;;36.38;26.42;;;22.50;68.30;;;;;;5025990;28;20041;-50
2023/08/18 01:40:59;;;;;;;36.35;27.88;;;22.50;68.20;;;;;;5029382;28;20065;-49
2023/08/18 01:43:30;;;;;;;37.78;25.85;;;22.50;68.10;;;;;;5007432;28;20137;-49
2023/08/18 01:45:57;;;;;;;35.33;25.60;;;22.40;68.10;;;;;;5006694;28;20561;-49
2023/08/18 01:48:27;;;;;;;36.92;26.08;;;22.40;68.20;;;;;;5028540;28;20077;-49
2023/08/18 01:50:57;;;;;;;37.70;26.40;;;22.40;68.40;;;;;;5007915;28;20526;-48
2023/08/18 01:53:28;;;;;;;36.95;27.05;;;22.40;68.40;;;;;;5005947;28;20536;-51
2023/08/18 01:55:55;;;;;;;38.40;27.60;;;22.40;68.50;;;;;;5026868;28;20051;-48
2023/08/18 01:58:21;;;;;;;41.67;29.70;;;22.40;68.50;;;;;;5015212;28;20042;-49
2023/08/18 02:00:54;;;;;;;43.00;29.10;;;22.30;68.50;;;;;;5012222;28;20046;-48
2023/08/18 02:03:22;;;;;;;37.45;26.85;;;22.30;68.70;;;;;;5012923;28;20054;-53
2023/08/18 02:05:54;;;;;;;42.97;29.75;;;22.30;69.30;;;;;;5011743;28;20049;-51
2023/08/18 02:08:22;;;;;;;43.83;30.20;;;22.30;68.70;;;;;;5030858;28;20069;-51
2023/08/18 02:10:52;;;;;;;44.63;30.02;;;22.30;68.60;;;;;;5026043;28;20045;-52
2023/08/18 02:13:21;;;;;;;40.67;28.65;;;22.30;68.70;;;;;;5010974;28;20131;-52
2023/08/18 02:15:48;;;;;;;41.45;29.08;;;22.30;68.80;;;;;;5011096;28;20057;-49
2023/08/18 02:18:17;;;;;;;46.00;30.73;;;22.30;68.70;;;;;;5012455;28;20033;-49
2023/08/18 02:20:46;;;;;;;46.72;29.45;;;22.30;68.70;;;;;;5030786;28;20041;-50
2023/08/18 02:23:13;;;;;;;41.97;29.27;;;22.30;68.70;;;;;;5030306;28;20072;-50
2023/08/18 02:25:39;;;;;;;49.17;32.10;;;22.20;68.70;;;;;;5023961;28;20065;-48
2023/08/18 02:28:19;;;;;;;44.35;30.05;;;22.20;68.70;;;;;;5029699;28;20099;-51
2023/08/18 02:30:45;;;;;;;45.15;30.13;;;22.20;68.70;;;;;;5011850;28;20041;-49
2023/08/18 02:33:12;;;;;;;44.85;30.83;;;22.20;68.70;;;;;;5013193;28;20041;-50
2023/08/18 02:35:43;;;;;;;40.10;29.67;;;22.20;68.80;;;;;;5006373;28;20552;-48
2023/08/18 02:38:10;;;;;;;47.50;31.95;;;22.10;69.00;;;;;;5030017;28;20151;-52
2023/08/18 02:40:37;;;;;;;48.88;31.75;;;22.10;68.90;;;;;;5031527;28;20069;-50
2023/08/18 02:43:06;;;;;;;45.33;29.02;;;22.10;69.00;;;;;;5029823;28;20053;-50
2023/08/18 02:45:34;;;;;;;47.45;31.42;;;22.10;69.10;;;;;;5012563;28;20044;-50
2023/08/18 02:48:04;;;;;;;45.85;31.55;;;22.10;69.20;;;;;;5030538;28;20038;-52
2023/08/18 02:50:30;;;;;;;38.95;29.77;;;22.00;69.30;;;;;;5024805;28;20407;-52
2023/08/18 02:53:03;;;;;;;46.10;31.05;;;22.00;69.20;;;;;;5012483;28;20077;-51
2023/08/18 02:55:35;;;;;;;41.97;29.50;;;22.00;69.20;;;;;;5012614;28;20041;-47
2023/08/18 02:58:03;;;;;;;44.28;30.25;;;22.00;69.20;;;;;;5010874;28;20087;-51
2023/08/18 03:00:31;;;;;;;49.60;31.50;;;22.00;69.30;;;;;;5030352;28;20045;-48
2023/08/18 03:02:59;;;;;;;39.58;28.52;;;22.00;69.30;;;;;;5030465;28;20496;-52
2023/08/18 03:05:25;;;;;;;46.67;32.47;;;22.00;70.00;;;;;;5029177;28;20562;-52
2023/08/18 03:07:55;;;;;;;42.95;31.05;;;22.00;69.40;;;;;;5029258;28;20037;-50
2023/08/18 03:10:21;;;;;;;42.92;29.58;;;22.00;69.60;;;;;;5022513;28;20570;-51
2023/08/18 03:12:52;;;;;;;46.63;30.92;;;22.00;69.50;;;;;;5030260;28;20038;-49
2023/08/18 03:15:20;;;;;;;44.42;32.00;;;22.00;69.50;;;;;;5011667;28;20103;-49
2023/08/18 03:17:50;;;;;;;41.20;30.00;;;22.00;69.50;;;;;;5011656;28;20507;-51
2023/08/18 03:20:19;;;;;;;45.83;31.42;;;21.90;69.60;;;;;;5010595;28;20157;-52
2023/08/18 03:22:49;;;;;;;41.85;28.90;;;22.00;69.70;;;;;;5012874;28;20041;-51
2023/08/18 03:25:17;;;;;;;39.80;29.80;;;21.90;69.60;;;;;;5011749;28;20045;-51
2023/08/18 03:27:44;;;;;;;45.33;30.40;;;21.90;69.60;;;;;;5009050;28;20076;-52
2023/08/18 03:30:12;;;;;;;45.03;30.55;;;21.90;69.70;;;;;;5022931;28;20038;-49
2023/08/18 03:32:44;;;;;;;43.28;29.23;;;21.90;69.80;;;;;;5012156;28;20049;-51
2023/08/18 03:35:11;;;;;;;45.25;31.00;;;21.90;69.80;;;;;;5013062;28;20045;-50
2023/08/18 03:37:40;;;;;;;44.40;28.30;;;21.90;69.80;;;;;;5012522;28;20042;-51
2023/08/18 03:40:07;;;;;;;40.58;28.83;;;21.90;70.00;;;;;;5017329;28;20565;-52
2023/08/18 03:42:39;;;;;;;48.13;30.13;;;21.90;70.10;;;;;;5012283;28;20038;-49
2023/08/18 03:45:07;;;;;;;41.72;29.88;;;21.90;70.00;;;;;;5012373;28;20041;-49
2023/08/18 03:47:36;;;;;;;44.00;29.90;;;21.90;70.10;;;;;;5012678;28;20127;-52
2023/08/18 03:50:04;;;;;;;46.70;31.90;;;21.90;70.00;;;;;;5009234;28;20045;-52
2023/08/18 03:52:32;;;;;;;42.97;29.77;;;21.90;70.10;;;;;;5010273;28;20119;-52
2023/08/18 03:54:58;;;;;;;44.67;31.27;;;21.90;70.00;;;;;;4992225;28;20045;-51
2023/08/18 03:57:27;;;;;;;43.50;29.92;;;21.80;70.00;;;;;;4993252;28;20069;-49
2023/08/18 03:59:55;;;;;;;47.53;32.80;;;21.90;70.20;;;;;;5029281;28;20041;-53
2023/08/18 04:02:25;;;;;;;42.45;30.67;;;21.90;70.20;;;;;;5011856;28;20433;-49
2023/08/18 04:04:54;;;;;;;45.63;30.70;;;21.90;70.30;;;;;;5010664;28;20041;-49
2023/08/18 04:07:24;;;;;;;50.00;31.42;;;21.90;70.40;;;;;;5011283;28;20559;-49
2023/08/18 04:09:58;;;;;;;44.45;31.00;;;21.90;70.30;;;;;;5003544;28;20069;-52
2023/08/18 04:12:25;;;;;;;48.70;31.05;;;21.90;70.40;;;;;;5003699;28;20053;-50
2023/08/18 04:14:53;;;;;;;45.50;30.02;;;21.80;70.30;;;;;;5011261;28;20121;-49
2023/08/18 04:17:20;;;;;;;37.22;26.83;;;21.90;70.40;;;;;;4994284;28;20463;-49
2023/08/18 04:19:52;;;;;;;44.33;28.27;;;21.90;70.40;;;;;;5003830;28;20041;-49
2023/08/18 04:22:19;;;;;;;42.33;28.52;;;21.90;70.30;;;;;;5006465;28;20046;-49
2023/08/18 04:24:48;;;;;;;39.35;26.80;;;21.90;70.30;;;;;;5003840;28;20045;-51
2023/08/18 04:27:15;;;;;;;42.30;29.00;;;21.90;70.40;;;;;;5009332;28;20411;-53
2023/08/18 04:29:44;;;;;;;45.05;28.77;;;21.90;70.30;;;;;;5006647;28;20037;-50
2023/08/18 04:32:13;;;;;;;40.80;28.80;;;21.90;70.30;;;;;;5007677;28;20048;-53
2023/08/18 04:34:40;;;;;;;40.30;27.75;;;21.90;70.30;;;;;;5020631;28;20073;-49
2023/08/18 04:37:07;;;;;;;41.75;27.50;;;21.80;70.40;;;;;;5007137;28;20100;-52
2023/08/18 04:39:35;;;;;;;42.20;28.92;;;21.80;70.50;;;;;;5014298;28;20132;-50
2023/08/18 04:42:05;;;;;;;41.58;26.83;;;21.80;70.70;;;;;;5004758;28;20088;-51
2023/08/18 04:44:33;;;;;;;39.63;25.83;;;21.80;70.70;;;;;;5003409;28;20055;-49
2023/08/18 04:47:03;;;;;;;43.25;27.25;;;21.80;70.70;;;;;;5008595;28;20033;-52
2023/08/18 04:49:32;;;;;;;42.30;27.60;;;21.80;70.80;;;;;;5012394;28;20100;-50
2023/08/18 04:52:01;;;;;;;41.08;27.33;;;21.80;70.90;;;;;;5000764;28;20421;-52
2023/08/18 04:54:29;;;;;;;41.15;26.75;;;21.80;70.90;;;;;;4995003;28;20052;-50
2023/08/18 04:56:59;;;;;;;44.05;28.25;;;21.80;71.60;;;;;;5029145;28;20057;-48
2023/08/18 04:59:27;;;;;;;40.75;26.45;;;21.80;71.10;;;;;;5007545;28;20107;-49
2023/08/18 05:01:56;;;;;;;37.88;26.85;;;21.80;71.10;;;;;;5031396;23;20621;-48
2023/08/18 05:04:23;;;;;;;41.42;27.30;;;21.80;71.10;;;;;;4991109;28;20472;-49
2023/08/18 05:06:50;;;;;;;41.15;27.88;;;21.80;71.20;;;;;;4998207;28;20401;-52
2023/08/18 05:09:18;;;;;;;42.92;28.95;;;21.80;71.30;;;;;;4998335;28;20077;-48
2023/08/18 05:11:44;;;;;;;40.88;26.60;;;21.80;71.30;;;;;;5005522;28;20097;-48
2023/08/18 05:14:12;;;;;;;43.97;25.90;;;21.80;71.20;;;;;;5002456;28;20042;-47
2023/08/18 05:16:38;;;;;;;39.78;28.20;;;21.90;71.30;;;;;;5000795;28;20054;-47
2023/08/18 05:19:05;;;;;;;44.63;27.55;;;21.90;71.30;;;;;;5001793;28;20046;-48
2023/08/18 05:21:34;;;;;;;44.45;26.98;;;21.90;71.30;;;;;;5006442;28;20100;-50
2023/08/18 05:24:01;;;;;;;42.90;28.73;;;21.90;71.40;;;;;;4986178;28;20501;-49
2023/08/18 05:26:28;;;;;;;46.38;29.65;;;21.90;71.40;;;;;;5004921;28;20381;-50
2023/08/18 05:28:54;;;;;;;46.97;28.13;;;22.00;71.40;;;;;;4997912;28;22373;-47
2023/08/18 05:31:21;;;;;;;50.20;30.13;;;21.90;71.40;;;;;;5004116;28;20471;-51
2023/08/18 05:33:48;;;;;;;47.28;29.95;;;22.00;71.50;;;;;;5002497;28;20508;-51
2023/08/18 05:36:15;;;;;;;42.83;28.38;;;22.00;71.40;;;;;;5007417;28;20578;-51
2023/08/18 05:38:41;;;;;;;49.53;29.70;;;22.00;71.40;;;;;;5007788;28;20045;-51
2023/08/18 05:41:13;;;;;;;47.33;29.92;;;22.00;71.40;;;;;;5007364;28;20544;-51
2023/08/18 05:43:40;;;;;;;;;;;22.10;71.60;;;;;;5007496;28;20034;-48
2023/08/18 05:46:07;;;;;;;46.83;27.73;;;22.10;71.20;;;;;;5007515;28;19929;-50
2023/08/18 05:48:34;;;;;;;41.53;27.92;;;22.10;70.90;;;;;;5005214;28;20049;-51
2023/08/18 05:51:02;;;;;;;48.42;29.73;;;22.10;71.10;;;;;;5006094;28;20041;-48
2023/08/18 05:53:30;;;;;;;45.22;28.10;;;22.10;71.10;;;;;;5007236;28;20061;-51
2023/08/18 05:55:57;;;;;;;45.90;28.58;;;22.10;71.20;;;;;;5005864;28;20506;-51
2023/08/18 05:58:24;;;;;;;46.65;30.10;;;22.10;71.30;;;;;;5000518;28;20042;-51
2023/08/18 06:00:51;;;;;;;42.90;29.30;;;22.10;71.30;;;;;;5004429;28;20065;-51
2023/08/18 06:03:20;;;;;;;48.78;30.05;;;22.10;71.40;;;;;;5008310;28;20524;-51
2023/08/18 06:05:48;;;;;;;46.45;29.63;;;22.10;71.50;;;;;;4990084;28;20042;-52
2023/08/18 06:08:15;;;;;;;41.70;27.50;;;22.10;71.60;;;;;;5004130;28;20049;-51
2023/08/18 06:10:42;;;;;;;41.45;28.30;;;22.20;71.60;;;;;;4998208;28;20042;-51
2023/08/18 06:13:09;;;;;;;43.35;28.10;;;22.20;71.60;;;;;;5002626;28;20046;-48
2023/08/18 06:15:36;;;;;;;45.08;29.98;;;22.30;71.60;;;;;;5002812;28;20046;-48
2023/08/18 06:18:03;;;;;;;41.70;27.67;;;22.30;71.50;;;;;;4999082;28;20501;-50
2023/08/18 06:20:30;;;;;;;42.45;28.33;;;22.30;71.40;;;;;;5003360;28;20045;-51
2023/08/18 06:22:57;;;;;;;45.63;29.40;;;22.30;71.30;;;;;;5003471;28;20140;-51
2023/08/18 06:25:24;;;;;;;45.75;30.40;;;22.40;71.30;;;;;;5005344;28;20046;-50
2023/08/18 06:27:50;;;;;;;44.58;29.48;;;22.40;71.30;;;;;;5000990;28;20049;-51
2023/08/18 06:30:17;;;;;;;44.75;30.10;;;22.40;71.30;;;;;;5005309;28;20209;-46
2023/08/18 06:32:45;;;;;;;52.25;29.67;;;22.50;71.30;;;;;;5009593;28;20057;-47
2023/08/18 06:35:12;;;;;;;45.28;28.23;;;22.50;71.20;;;;;;5009192;28;20125;-46
2023/08/18 06:37:39;;;;;;;44.72;28.90;;;22.50;71.20;;;;;;5008130;28;20559;-49
2023/08/18 06:40:06;;;;;;;46.03;29.95;;;22.50;71.20;;;;;;5009539;28;20049;-50
2023/08/18 06:42:33;;;;;;;45.55;30.15;;;22.50;71.10;;;;;;4990531;28;20526;-51
2023/08/18 06:44:59;;;;;;;45.22;29.70;;;22.60;71.20;;;;;;5008653;28;20058;-48
2023/08/18 06:47:26;;;;;;;46.42;28.95;;;22.60;71.10;;;;;;4991607;28;20047;-49
2023/08/18 06:49:53;;;;;;;46.35;29.48;;;22.60;70.90;;;;;;5012676;28;20135;-49
2023/08/18 06:52:19;;;;;;;46.00;28.25;;;22.60;71.00;;;;;;5012360;28;20139;-51
2023/08/18 06:54:47;;;;;;;46.17;29.05;;;22.70;71.00;;;;;;5009701;28;20053;-49
2023/08/18 06:57:13;;;;;;;49.75;30.38;;;22.70;71.00;;;;;;5011603;28;20050;-51
2023/08/18 06:59:40;;;;;;;45.35;29.85;;;22.70;71.00;;;;;;5009099;28;20053;-50
2023/08/18 07:02:07;;;;;;;49.13;31.85;;;22.80;70.80;;;;;;5011999;28;20073;-50
2023/08/18 07:04:34;;;;;;;52.35;32.78;;;22.80;70.80;;;;;;5011079;28;20049;-51
2023/08/18 07:07:00;;;;;;;49.83;32.53;;;22.80;70.70;;;;;;5011674;28;20065;-51
2023/08/18 07:09:29;;;;;;;44.70;31.83;;;22.80;70.70;;;;;;4989439;28;20050;-51
2023/08/18 07:11:56;;;;;;;44.20;29.77;;;22.90;70.60;;;;;;5011786;28;20128;-50
2023/08/18 07:14:23;;;;;;;44.90;31.95;;;22.90;70.60;;;;;;5011143;28;20054;-51
2023/08/18 07:16:51;;;;;;;46.75;31.90;;;22.90;70.50;;;;;;5010300;28;20132;-51
2023/08/18 07:19:18;;;;;;;47.88;30.73;;;23.00;70.60;;;;;;5011471;28;20038;-48
2023/08/18 07:21:45;;;;;;;45.67;31.10;;;23.00;70.50;;;;;;5006555;28;20046;-50
2023/08/18 07:24:12;;;;;;;46.33;30.33;;;23.00;70.50;;;;;;5007229;28;20116;-47
2023/08/18 07:26:38;;;;;;;49.15;32.00;;;23.00;70.50;;;;;;5009661;28;20053;-51
2023/08/18 07:29:05;;;;;;;45.80;32.30;;;23.00;70.50;;;;;;5003371;28;20049;-51
2023/08/18 07:31:32;;;;;;;48.25;31.42;;;23.00;70.50;;;;;;5008478;28;20042;-50
2023/08/18 07:33:59;;;;;;;47.97;32.55;;;23.10;70.50;;;;;;5011622;28;20092;-52
2023/08/18 07:36:30;;;;;;;45.03;30.27;;;23.10;70.60;;;;;;5008854;28;20081;-51
2023/08/18 07:38:57;;;;;;;38.70;29.13;;;23.10;70.40;;;;;;4991252;28;20516;-50
2023/08/18 07:41:23;;;;;;;40.55;29.33;;;23.10;70.40;;;;;;5009579;28;20054;-51
2023/08/18 07:43:50;;;;;;;41.13;29.42;;;23.20;70.40;;;;;;5011225;28;20114;-49
2023/08/18 07:46:17;;;;;;;44.30;30.60;;;23.20;70.30;;;;;;4991982;28;20077;-51
2023/08/18 07:48:44;;;;;;;41.75;31.00;;;23.30;71.00;;;;;;5010467;28;20038;-52
2023/08/18 07:51:11;;;;;;;41.67;29.98;;;23.30;70.30;;;;;;5009970;28;20529;-52
2023/08/18 07:53:38;;;;;;;40.83;30.58;;;23.40;70.10;;;;;;5010189;28;20100;-50
2023/08/18 07:56:08;;;;;;;43.97;31.13;;;23.40;69.90;;;;;;5004424;28;20046;-50
2023/08/18 07:58:35;;;;;;;42.47;31.60;;;23.40;70.50;;;;;;5009443;28;20077;-49
2023/08/18 08:01:02;;;;;;;46.28;33.25;;;23.40;69.80;;;;;;5009388;28;20045;-50
2023/08/18 08:03:29;;;;;;;45.67;32.30;;;23.50;69.90;;;;;;5010437;28;20044;-50
2023/08/18 08:05:56;;;;;;;45.33;30.80;;;23.50;69.70;;;;;;5009962;28;20050;-51
2023/08/18 08:08:23;;;;;;;44.72;31.65;;;23.60;69.70;;;;;;5010555;28;20121;-52
2023/08/18 08:10:49;;;;;;;41.40;32.08;;;23.60;69.70;;;;;;5001369;28;20070;-50
2023/08/18 08:13:16;;;;;;;39.50;28.88;;;23.60;69.60;;;;;;5007838;28;20424;-50
2023/08/18 08:15:45;;;;;;;34.33;27.60;;;23.70;69.70;;;;;;5004530;28;20065;-51
2023/08/18 08:18:15;;;;;;;37.85;28.95;;;23.70;69.60;;;;;;5010428;28;20038;-50
2023/08/18 08:20:42;;;;;;;36.15;27.23;;;23.80;69.50;;;;;;5005626;28;20546;-52
2023/08/18 08:23:09;;;;;;;36.65;28.48;;;23.90;69.20;;;;;;5002489;28;20061;-49
2023/08/18 08:25:37;;;;;;;33.58;27.13;;;23.90;69.10;;;;;;4988749;28;20073;-47
2023/08/18 08:28:04;;;;;;;36.70;28.75;;;23.90;69.00;;;;;;5008562;28;20039;-52
2023/08/18 08:30:31;;;;;;;35.97;28.05;;;24.00;68.90;;;;;;5010268;28;20132;-48
2023/08/18 08:33:06;;;;;;;37.63;28.80;;;24.00;68.80;;;;;;5009771;28;20054;-52
2023/08/18 08:35:33;;;;;;;31.30;26.58;;;24.10;68.70;;;;;;5009926;28;20045;-50
2023/08/18 08:38:00;;;;;;;35.53;26.80;;;24.10;68.60;;;;;;5008736;28;20107;-50
2023/08/18 08:40:27;;;;;;;35.47;26.63;;;24.20;68.60;;;;;;5010980;28;20069;-47
2023/08/18 08:42:56;;;;;;;33.90;27.88;;;24.30;68.70;;;;;;5009953;28;20041;-50
2023/08/18 08:45:29;;;;;;;31.85;26.13;;;24.30;68.50;;;;;;5010916;28;20049;-47
2023/08/18 08:47:57;;;;;;;31.25;26.80;;;24.40;68.40;;;;;;5008898;28;20038;-48
2023/08/18 08:50:29;;;;;;;31.77;25.83;;;24.50;68.00;;;;;;5009165;28;20056;-50
2023/08/18 08:53:00;;;;;;;33.53;25.17;;;24.50;67.80;;;;;;5009537;28;20053;-51
2023/08/18 08:55:32;;;;;;;29.65;22.38;;;24.60;67.90;;;;;;4987830;28;20042;-47
2023/08/18 08:58:00;;;;;;;25.33;22.02;;;24.60;67.60;;;;;;5009345;28;20046;-49
2023/08/18 09:00:27;;;;;;;23.30;18.83;;;24.70;67.50;;;;;;5007885;28;20061;-51
2023/08/18 09:03:02;;;;;;;20.05;17.85;;;24.70;67.30;;;;;;5009222;28;20038;-52
2023/08/18 09:05:32;;;;;;;19.90;16.83;;;24.80;67.00;;;;;;5010021;28;20121;-47
2023/08/18 09:08:00;;;;;;;17.73;15.85;;;24.90;66.90;;;;;;5008240;28;20042;-51
2023/08/18 09:10:27;;;;;;;19.85;15.45;;;24.90;67.10;;;;;;5010158;28;20053;-51
2023/08/18 09:12:54;;;;;;;17.10;14.65;;;25.00;66.90;;;;;;5008979;28;20065;-51
2023/08/18 09:15:22;;;;;;;17.77;15.13;;;25.00;66.70;;;;;;5009218;28;20088;-47
2023/08/18 09:17:50;;;;;;;15.38;13.40;;;25.10;66.70;;;;;;5008866;28;20045;-51
2023/08/18 09:20:17;;;;;;;16.73;14.25;;;25.10;66.50;;;;;;4985329;28;20042;-46
2023/08/18 09:22:44;;;;;;;15.18;13.45;;;25.20;66.70;;;;;;4996563;28;20042;-49
2023/08/18 09:25:13;;;;;;;15.05;13.35;;;25.20;66.50;;;;;;5000321;28;20052;-47
2023/08/18 09:27:39;;;;;;;14.43;12.43;;;25.30;66.30;;;;;;5004217;28;20121;-51
2023/08/18 09:30:07;;;;;;;14.38;12.88;;;25.40;66.40;;;;;;5009194;28;21064;-51
2023/08/18 09:32:36;;;;;;;12.07;10.88;;;25.50;66.40;;;;;;5008256;28;20046;-51
2023/08/18 09:35:09;;;;;;;13.77;12.45;;;25.60;67.10;;;;;;5009899;28;20042;-49
2023/08/18 09:37:36;;;;;;;13.02;11.73;;;25.70;66.70;;;;;;5007593;28;20052;-51
2023/08/18 09:40:04;;;;;;;17.95;12.13;;;25.90;66.00;;;;;;5010192;28;20041;-51
2023/08/18 09:42:31;;;;;;;12.82;11.48;;;26.00;65.50;;;;;;5008928;28;20153;-51
2023/08/18 09:44:58;;;;;;;12.75;11.32;;;26.10;65.30;;;;;;5009798;28;20054;-51
2023/08/18 09:47:29;;;;;;;12.80;11.50;;;26.30;65.00;;;;;;5007787;28;20038;-51
2023/08/18 09:49:58;;;;;;;11.50;10.20;;;26.30;64.60;;;;;;5010343;28;20100;-51
2023/08/18 09:52:28;;;;;;;12.93;11.63;;;26.50;64.70;;;;;;5003995;28;20133;-51
2023/08/18 09:55:11;;;;;;;13.43;11.98;;;26.60;64.50;;;;;;5001325;28;20108;-52
2023/08/18 09:57:44;;;;;;;12.32;11.13;;;26.70;64.00;;;;;;5005125;28;20054;-49
2023/08/18 10:00:12;;;;;;;12.65;11.45;;;26.70;64.00;;;;;;5004945;28;20552;-49
2023/08/18 10:02:43;;;;;;;12.88;11.63;;;26.80;63.80;;;;;;5006321;28;20104;-52
2023/08/18 10:05:14;;;;;;;13.87;12.60;;;27.00;63.80;;;;;;5009114;28;20113;-48
2023/08/18 10:07:41;;;;;;;13.40;12.15;;;27.00;63.30;;;;;;4999595;28;20050;-48
2023/08/18 10:10:08;;;;;;;13.23;11.95;;;27.10;63.20;;;;;;5005775;28;20046;-51
2023/08/18 10:12:35;;;;;;;13.35;12.05;;;27.20;62.90;;;;;;5001240;28;20057;-51
2023/08/18 10:15:01;;;;;;;14.85;13.35;;;27.30;62.90;;;;;;5008098;28;20053;-51
2023/08/18 10:17:28;;;;;;;13.13;11.88;;;27.40;62.50;;;;;;5005268;28;20058;-52
2023/08/18 10:19:58;;;;;;;12.65;11.50;;;27.50;62.50;;;;;;5008730;28;20106;-51
2023/08/18 10:22:29;;;;;;;12.90;11.60;;;27.60;62.70;;;;;;5010751;28;20077;-50
2023/08/18 10:24:57;;;;;;;14.85;13.35;;;27.70;62.50;;;;;;4990742;28;20057;-50
2023/08/18 10:27:26;;;;;;;15.40;13.90;;;27.80;62.20;;;;;;5010065;28;20521;-49
2023/08/18 10:30:07;;;;;;;17.30;15.10;;;27.90;61.70;;;;;;5011918;28;20046;-52
2023/08/18 10:32:35;;;;;;;15.77;14.27;;;28.00;61.30;;;;;;5011891;28;20041;-51
2023/08/18 10:35:22;;;;;;;16.48;14.60;;;28.10;61.70;;;;;;5013546;28;20477;-52
2023/08/18 10:38:10;;;;;;;15.30;13.45;;;28.20;61.00;;;;;;5007984;28;20115;-50
2023/08/18 10:40:38;;;;;;;14.38;13.05;;;28.30;61.00;;;;;;5010925;28;20130;-51
2023/08/18 10:43:12;;;;;;;16.08;14.38;;;28.40;61.00;;;;;;5011149;28;20126;-52
2023/08/18 10:45:42;;;;;;;15.23;13.82;;;28.40;59.80;;;;;;5012239;28;20107;-52
2023/08/18 10:48:09;;;;;;;15.23;13.20;;;28.50;59.60;;;;;;5011101;28;20121;-52
2023/08/18 10:50:42;;;;;;;16.83;15.13;;;28.40;59.60;;;;;;5008151;28;20476;-51
2023/08/18 10:53:11;;;;;;;16.33;14.27;;;28.30;59.50;;;;;;5007361;28;20097;-52
2023/08/18 10:55:39;;;;;;;16.50;14.90;;;28.20;59.80;;;;;;4989336;28;20816;-52
2023/08/18 10:58:09;;;;;;;16.88;15.38;;;28.20;59.80;;;;;;5010884;28;20831;-50
2023/08/18 11:00:37;;;;;;;15.70;14.20;;;28.10;60.10;;;;;;5010446;28;20050;-52
2023/08/18 11:03:05;;;;;;;15.25;13.85;;;28.00;60.90;;;;;;5011353;28;20484;-52
2023/08/18 11:05:32;;;;;;;15.13;13.63;;;28.00;61.20;;;;;;5011989;28;20034;-52
2023/08/18 11:08:00;;;;;;;16.90;15.45;;;27.90;61.00;;;;;;5010085;28;20117;-50
2023/08/18 11:10:27;;;;;;;17.08;15.48;;;27.90;61.30;;;;;;5011181;28;20104;-51
2023/08/18 11:12:57;;;;;;;15.70;14.30;;;27.90;61.50;;;;;;5005843;28;20069;-51
2023/08/18 11:15:24;;;;;;;17.40;15.70;;;27.80;61.50;;;;;;4986893;28;20074;-49
2023/08/18 11:17:51;;;;;;;17.60;15.70;;;27.80;61.50;;;;;;5005354;28;20459;-50
2023/08/18 11:20:19;;;;;;;16.77;15.27;;;27.90;62.00;;;;;;4999462;28;20077;-49
2023/08/18 11:22:53;;;;;;;15.73;14.38;;;27.80;62.40;;;;;;5005730;28;20042;-49
2023/08/18 11:25:22;;;;;;;15.25;13.73;;;27.90;62.10;;;;;;5004241;28;20404;-48
2023/08/18 11:27:53;;;;;;;17.85;15.65;;;27.80;62.10;;;;;;5003871;28;20038;-50
2023/08/18 11:30:21;;;;;;;17.75;15.80;;;27.90;61.80;;;;;;5006877;28;20133;-47
2023/08/18 11:32:48;;;;;;;16.02;14.43;;;27.90;62.30;;;;;;4993786;28;20052;-51
2023/08/18 11:35:16;;;;;;;15.98;14.35;;;27.90;62.20;;;;;;5011219;28;20038;-48
2023/08/18 11:37:45;;;;;;;16.50;14.95;;;28.00;62.40;;;;;;5005761;28;20041;-50
2023/08/18 11:40:14;;;;;;;15.82;14.23;;;28.00;62.80;;;;;;5010376;28;21607;-49
2023/08/18 11:42:42;;;;;;;13.93;12.57;;;28.10;62.80;;;;;;5007955;28;20046;-50
2023/08/18 11:45:11;;;;;;;16.00;14.50;;;28.20;63.00;;;;;;5005508;28;20552;-52
2023/08/18 11:47:38;;;;;;;15.77;14.27;;;28.30;62.60;;;;;;5004950;28;20069;-51
2023/08/18 11:50:07;;;;;;;14.55;13.25;;;28.40;62.20;;;;;;5002354;28;20042;-51
2023/08/18 11:52:41;;;;;;;14.82;13.52;;;28.50;62.20;;;;;;4983193;28;20133;-51
2023/08/18 11:55:09;;;;;;;15.73;14.32;;;28.60;61.90;;;;;;4995726;28;20038;-51
2023/08/18 11:57:40;;;;;;;14.73;13.30;;;28.60;61.60;;;;;;4999685;28;20591;-50
2023/08/18 12:00:13;;;;;;;12.85;11.82;;;28.70;61.50;;;;;;5000572;28;20048;-49
2023/08/18 12:02:47;;;;;;;15.23;13.88;;;28.80;61.60;;;;;;5003166;28;20096;-49
2023/08/18 12:05:22;;;;;;;16.75;15.10;;;28.90;61.20;;;;;;5002988;28;20050;-48
2023/08/18 12:07:52;;;;;;;13.80;11.88;;;29.00;60.40;;;;;;5005014;28;20042;-50
2023/08/18 12:10:21;;;;;;;13.15;12.05;;;29.10;61.40;;;;;;5003370;28;20117;-47
2023/08/18 12:12:52;;;;;;;13.30;12.00;;;29.20;60.90;;;;;;5003879;28;20060;-51
2023/08/18 12:15:21;;;;;;;12.38;11.27;;;29.30;60.70;;;;;;5000820;28;20049;-49
2023/08/18 12:17:48;;;;;;;16.02;14.43;;;29.40;60.80;;;;;;5001296;28;20456;-51
2023/08/18 12:20:18;;;;;;;14.32;13.02;;;29.60;60.50;;;;;;5003314;28;20046;-50
2023/08/18 12:22:46;;;;;;;13.98;12.88;;;29.70;60.50;;;;;;5001311;28;20037;-51
2023/08/18 12:25:13;;;;;;;13.90;12.57;;;29.80;60.00;;;;;;5003051;28;20075;-49
2023/08/18 12:27:40;;;;;;;12.85;11.65;;;29.90;59.80;;;;;;5005586;28;20034;-49
2023/08/18 12:30:07;;;;;;;10.90;10.00;;;30.00;59.40;;;;;;5002281;28;20052;-49
2023/08/18 12:32:34;;;;;;;13.85;11.85;;;30.10;59.80;;;;;;5003246;28;20049;-51
2023/08/18 12:35:01;;;;;;;13.05;11.95;;;30.20;59.90;;;;;;4999324;28;20073;-52